METAR Data
IDs: Format: Raw Decoded Include TAF

Data at: 1130 UTC 26 Sep 2018

KLCH 261053Z 00000KT 10SM BKN095 26/26 A2999 RMK AO2 LTG DSNT N RAE19 SLP162 P0005 T02560256
KLCH 261008Z AUTO 33003KT 8SM -RA FEW024 BKN070 OVC090 26/24 A2999 RMK AO2 P0005 T02560239
KLCH 260953Z AUTO 22005KT 2 1/2SM +RA BR SCT023 BKN037 OVC100 26/24 A3000 RMK AO2 LTG DSNT SW RAB47 SLP165 P0004 T02560244
KLCH 260853Z AUTO 00000KT 10SM BKN100 26/25 A2999 RMK AO2 SLP163 T02610250 58007
KLCH 260753Z AUTO 00000KT 10SM BKN095 26/25 A3000 RMK AO2 SLP165 T02610250
KLCH 260653Z AUTO 12003KT 10SM FEW020 BKN100 26/25 A3001 RMK AO2 SLP171 T02610250
KLCH 260553Z AUTO 00000KT 10SM CLR 26/24 A3001 RMK AO2 SLP171 T02610244 10283 20256 403110239 58000
KLCH 260453Z AUTO 13004KT 10SM CLR 26/24 A3002 RMK AO2 SLP172 T02610244
KLCH 260353Z AUTO 00000KT 10SM CLR 26/24 A3002 RMK AO2 SLP171 T02610244
KLCH 260253Z AUTO 13003KT 10SM CLR 26/24 A3002 RMK AO2 SLP171 T02610244 53021
KLCH 260153Z 12005KT 10SM CLR 27/25 A2999 RMK AO2 SLP164 T02670250
KLCH 260053Z 00000KT 10SM CLR 27/25 A2996 RMK AO2 SLP153 T02720250
KLCH 252353Z 12004KT 10SM CLR 28/25 A2995 RMK AO2 SLP150 T02830250 10311 20283 53002
KLCH 252253Z 20004KT 10SM BKN100 30/24 A2995 RMK AO2 SLP149 T03000239
KLCH 252153Z 26006KT 10SM FEW037 FEW047 29/24 A2994 RMK AO2 SLP147 T02890244
KLCH 252053Z 23009KT 10SM CLR 31/23 A2995 RMK AO2 SLP148 T03110233 56016
KLCH 251953Z 21005KT 10SM FEW030 FEW080 31/24 A2996 RMK AO2 LTG DSNT N SLP154 T03060239
KLCH 251853Z 25006KT 10SM FEW026 30/24 A2998 RMK AO2 SLP158 T03000239
KLCH 251753Z 23004KT 10SM CLR 31/24 A3000 RMK AO2 SLP165 60014 T03060239 10306 20244 58010
KLCH 251653Z 21004KT 10SM BKN075 28/25 A3002 RMK AO2 RAB34E45 SLP172 P0000 T02830250
KLCH 251553Z 00000KT 10SM FEW035 SCT070 SCT090 26/26 A3002 RMK AO2 RAE40 SLP174 P0005 T02610256
KLCH 251455Z VRB04KT 3SM +RA BR SCT017 BKN036 OVC060 25/24 A3002 RMK AO2 P0002 T02500244
KLCH 251453Z 00000KT 2SM +RA BR SCT017 BKN032 OVC070 25/24 A3003 RMK AO2 RAB36 SLP175 P0009 60009 T02500239 51013
KLCH 251449Z 26005KT 2SM RA BR SCT017 BKN032 OVC045 25/24 A3002 RMK AO2 RAB36 P0005
KLCH 251433Z 24007KT 200V280 10SM FEW015 BKN020 OVC034 27/24 A3002 RMK AO2 T02670244
KLCH 251353Z 00000KT 10SM CLR 27/24 A3000 RMK AO2 SLP165 T02670244
KLCH 251253Z 00000KT 10SM BKN095 25/25 A2999 RMK AO2 RAE22 SLP162 P0000 T02500250
KLCH 251153Z 18003KT 8SM -RA FEW027 SCT075 BKN110 24/24 A2999 RMK AO2 RAB21 SLP162 P0020 60025 70025 T02440244 10256 20239 53013
KLCH 251141Z 14005KT 7SM -RA SCT023 SCT032 BKN055 24/23 A2999 RMK AO2 RAB21 P0019 T02440233
KLCH 251125Z 13010KT 3SM +RA BR BKN024 BKN032 24/23 A2999 RMK AO2 RAB21 P0010 T02440233
KLCH 251123Z 14010KT 2 1/2SM +RA BR BKN022 BKN032 24/23 A2999 RMK AO2 RAB21 P0004 T02440233
KLCH 251053Z 14005KT 10SM SCT022 SCT050 BKN070 25/23 A2997 RMK AO2 RAB04E15B32E45 SLP156 P0005 T02500233
KLCH 251043Z AUTO 16006KT 9SM -RA SCT019 BKN043 OVC110 26/23 A2996 RMK AO2 RAB04E15B32 P0005 T02560228
KLCH 251036Z AUTO 16007KT 4SM +RA BR SCT016 BKN023 OVC080 24/23 A2996 RMK AO2 RAB04E15B32 P0005 T02440228
KLCH 251018Z AUTO VRB03KT 10SM BKN016 BKN028 BKN080 25/24 A2996 RMK AO2 RAB04E15 P0003 T02500239
KLCH 251010Z AUTO VRB03KT 2 1/2SM -RA BR FEW019 SCT026 BKN045 25/24 A2996 RMK AO2 RAB04 P0003 T02500239
KLCH 250953Z AUTO 00000KT 10SM CLR 24/24 A2995 RMK AO2 SLP150 T02440239
KLCH 250853Z AUTO 10003KT 10SM CLR 24/23 A2995 RMK AO2 SLP149 T02440233 53001
KLCH 250753Z AUTO 00000KT 10SM CLR 24/23 A2995 RMK AO2 SLP149 T02440233
KLCH 250653Z AUTO 16003KT 10SM CLR 24/23 A2995 RMK AO2 SLP148 T02440233
KLCH 250553Z AUTO 14004KT 10SM CLR 24/23 A2995 RMK AO2 SLP148 T02390228 10283 20239 403170239 50002
KLCH 250453Z AUTO 13004KT 10SM CLR 24/23 A2995 RMK AO2 SLP150 T02440228
KLCH 250353Z AUTO 14003KT 10SM CLR 25/23 A2995 RMK AO2 SLP150 T02500233
KLCH 250253Z AUTO 00000KT 10SM CLR 25/23 A2994 RMK AO2 SLP146 T02500228 53018
KLCH 250153Z 18003KT 10SM CLR 26/22 A2992 RMK AO2 SLP139 T02610222
KLCH 250053Z 18004KT 10SM CLR 27/22 A2990 RMK AO2 SLP131 T02670222
KLCH 242353Z 18004KT 10SM CLR 28/22 A2989 RMK AO2 SLP128 T02830222 10317 20283 53004